Time,TemperatureF,DewpointF,PressureIn,WindDirection,WindDirectionDegrees,WindSpeedMPH,WindSpeedGustMPH,Humidity,HourlyPrecipIn,Conditions,Clouds,dailyrainin,SolarRadiationWatts/m^2,SoftwareType,DateUTC
2014-03-09 00:02:00,34.0,26.0,-100.00,North,350,6.0,15.0,73,0.00,,,0.01,0.000000,,2014-03-09 06:02:00,
2014-03-09 00:42:00,34.0,26.0,-100.00,NNW,342,8.0,13.0,72,0.00,,,0.01,0.000000,,2014-03-09 06:42:00,
2014-03-09 00:52:00,34.0,26.0,-100.00,NNW,342,8.0,13.0,72,0.00,,,0.01,0.000000,,2014-03-09 06:52:00,
2014-03-09 01:02:00,34.0,26.0,-100.00,NNW,342,8.0,13.0,72,0.00,,,0.01,0.000000,,2014-03-09 07:02:00,
2014-03-09 01:42:00,35.0,26.0,-100.00,NNW,341,7.0,15.0,70,0.00,,,0.01,0.000000,,2014-03-09 07:42:00,
2014-03-09 01:52:00,35.0,26.0,-100.00,NNW,341,7.0,15.0,70,0.00,,,0.01,0.000000,,2014-03-09 07:52:00,
2014-03-09 03:01:00,35.0,26.0,-100.00,NNW,341,7.0,15.0,70,0.00,,,0.01,0.000000,,2014-03-09 08:01:00,
2014-03-09 03:42:00,34.0,26.0,-100.00,NNW,329,6.0,12.0,71,0.00,,,-99.99,0.000000,,2014-03-09 08:42:00,
2014-03-09 03:52:00,34.0,26.0,-100.00,NNW,329,6.0,12.0,71,0.00,,,-99.99,0.000000,,2014-03-09 08:52:00,
2014-03-09 04:02:00,34.0,26.0,-100.00,NNW,329,6.0,12.0,71,0.00,,,-99.99,0.000000,,2014-03-09 09:02:00,
2014-03-09 04:43:00,34.0,26.0,-100.00,NW,324,5.0,8.0,72,0.00,,,0.01,0.000000,,2014-03-09 09:43:00,
2014-03-09 04:53:00,34.0,26.0,-100.00,NW,324,5.0,8.0,72,0.00,,,0.01,0.000000,,2014-03-09 09:53:00,
2014-03-09 05:03:00,34.0,26.0,-100.00,NW,324,5.0,8.0,72,0.00,,,0.01,0.000000,,2014-03-09 10:03:00,
2014-03-09 05:43:00,36.0,27.0,-100.00,NNW,331,5.0,10.0,69,0.00,,,0.01,0.000000,,2014-03-09 10:43:00,
2014-03-09 05:53:00,36.0,27.0,-100.00,NNW,331,5.0,10.0,69,0.00,,,0.01,0.000000,,2014-03-09 10:53:00,
2014-03-09 06:03:00,36.0,27.0,-100.00,NNW,331,5.0,10.0,69,0.00,,,0.01,0.000000,,2014-03-09 11:03:00,
2014-03-09 06:42:00,37.0,27.0,-100.00,NW,319,6.0,10.0,67,0.00,,,0.01,0.000000,,2014-03-09 11:42:00,
2014-03-09 06:52:00,37.0,27.0,-100.00,NW,319,6.0,10.0,67,0.00,,,0.01,0.000000,,2014-03-09 11:52:00,
2014-03-09 07:02:00,37.0,27.0,-100.00,NW,319,6.0,10.0,67,0.00,,,0.01,0.000000,,2014-03-09 12:02:00,
2014-03-09 07:42:00,38.0,27.0,-100.00,NNW,329,5.0,11.0,64,0.00,,,0.01,0.000000,,2014-03-09 12:42:00,
2014-03-09 07:52:00,38.0,27.0,-100.00,NNW,329,5.0,11.0,64,0.00,,,0.01,0.000000,,2014-03-09 12:52:00,
2014-03-09 08:01:00,38.0,27.0,-100.00,NNW,329,5.0,11.0,64,0.00,,,0.01,0.000000,,2014-03-09 13:01:00,
2014-03-09 08:42:00,39.0,27.0,-100.00,NW,315,5.0,9.0,63,0.00,,,0.01,1.000000,,2014-03-09 13:42:00,
2014-03-09 08:52:00,39.0,27.0,-100.00,NW,315,5.0,9.0,63,0.00,,,0.01,1.000000,,2014-03-09 13:52:00,
2014-03-09 09:02:00,39.0,27.0,-100.00,NW,315,5.0,9.0,63,0.00,,,0.01,1.000000,,2014-03-09 14:02:00,
2014-03-09 09:42:00,39.0,27.0,-100.00,NW,304,6.0,11.0,62,0.00,,,0.01,32.000000,,2014-03-09 14:42:00,
2014-03-09 09:52:00,39.0,27.0,-100.00,NW,304,6.0,11.0,62,0.00,,,0.01,32.000000,,2014-03-09 14:52:00,
2014-03-09 10:02:00,39.0,27.0,-100.00,NW,304,6.0,11.0,62,0.00,,,0.01,32.000000,,2014-03-09 15:02:00,
2014-03-09 10:44:00,41.0,27.0,-100.00,NW,323,6.0,10.0,57,0.00,,,0.01,135.000000,,2014-03-09 15:44:00,
2014-03-09 10:54:00,41.0,27.0,-100.00,NW,323,6.0,10.0,57,0.00,,,0.01,135.000000,,2014-03-09 15:54:00,
2014-03-09 11:04:00,41.0,27.0,-100.00,NW,323,6.0,10.0,57,0.00,,,0.01,135.000000,,2014-03-09 16:04:00,
2014-03-09 11:43:00,44.0,28.0,-100.00,NW,321,5.0,10.0,52,0.00,,,0.01,288.000000,,2014-03-09 16:43:00,
2014-03-09 11:53:00,44.0,28.0,-100.00,NW,321,5.0,10.0,52,0.00,,,0.01,288.000000,,2014-03-09 16:53:00,
2014-03-09 12:02:00,44.0,28.0,-100.00,NW,321,5.0,10.0,52,0.00,,,0.01,288.000000,,2014-03-09 17:02:00,
2014-03-09 12:42:00,48.0,29.0,-100.00,WNW,296,4.0,10.0,48,0.00,,,0.01,458.000000,,2014-03-09 17:42:00,
2014-03-09 12:52:00,48.0,29.0,-100.00,WNW,296,4.0,10.0,48,0.00,,,0.01,458.000000,,2014-03-09 17:52:00,
2014-03-09 13:02:00,48.0,29.0,-100.00,WNW,296,4.0,10.0,48,0.00,,,0.01,458.000000,,2014-03-09 18:02:00,
2014-03-09 13:42:00,52.0,30.0,-100.00,WNW,297,5.0,13.0,43,0.00,,,0.01,844.000000,,2014-03-09 18:42:00,
2014-03-09 13:52:00,52.0,30.0,-100.00,WNW,297,5.0,13.0,43,0.00,,,0.01,844.000000,,2014-03-09 18:52:00,
2014-03-09 14:02:00,52.0,30.0,-100.00,WNW,297,5.0,13.0,43,0.00,,,0.01,844.000000,,2014-03-09 19:02:00,
2014-03-09 14:42:00,56.0,33.0,-100.00,NW,317,6.0,14.0,41,0.00,,,0.01,992.000000,,2014-03-09 19:42:00,
2014-03-09 14:52:00,56.0,33.0,-100.00,NW,317,6.0,14.0,41,0.00,,,0.01,992.000000,,2014-03-09 19:52:00,
2014-03-09 15:02:00,56.0,33.0,-100.00,NW,317,6.0,14.0,41,0.00,,,0.01,992.000000,,2014-03-09 20:02:00,
2014-03-09 15:42:00,58.0,33.0,-100.00,NW,311,5.0,11.0,38,0.00,,,0.01,954.000000,,2014-03-09 20:42:00,
2014-03-09 15:52:00,58.0,33.0,-100.00,NW,311,5.0,11.0,38,0.00,,,0.01,954.000000,,2014-03-09 20:52:00,
2014-03-09 16:01:00,58.0,33.0,-100.00,NW,311,5.0,11.0,38,0.00,,,0.01,954.000000,,2014-03-09 21:01:00,
2014-03-09 16:43:00,61.0,33.0,-100.00,WSW,240,5.0,13.0,35,0.00,,,0.00,852.000000,,2014-03-09 21:43:00,
2014-03-09 16:53:00,61.0,33.0,-100.00,WSW,240,5.0,13.0,35,0.00,,,0.00,852.000000,,2014-03-09 21:53:00,
2014-03-09 17:03:00,61.0,33.0,-100.00,WSW,240,5.0,13.0,35,0.00,,,0.00,852.000000,,2014-03-09 22:03:00,
2014-03-09 17:43:00,62.0,33.0,-100.00,NW,306,4.0,10.0,34,0.00,,,0.00,684.000000,,2014-03-09 22:43:00,
2014-03-09 17:52:00,62.0,33.0,-100.00,NW,306,4.0,10.0,34,0.00,,,0.00,684.000000,,2014-03-09 22:52:00,
2014-03-09 18:02:00,62.0,33.0,-100.00,NW,306,4.0,10.0,34,0.00,,,0.00,684.000000,,2014-03-09 23:02:00,
2014-03-09 18:43:00,63.0,33.0,-100.00,West,279,3.0,10.0,33,0.00,,,0.00,466.000000,,2014-03-09 23:43:00,
2014-03-09 18:53:00,63.0,33.0,-100.00,West,279,3.0,10.0,33,0.00,,,0.00,466.000000,,2014-03-09 23:53:00,
2014-03-09 19:01:00,63.0,33.0,-100.00,West,279,3.0,10.0,33,0.00,,,0.00,466.000000,,2014-03-10 00:01:00,
2014-03-09 19:42:00,62.0,34.0,-100.00,South,170,2.0,6.0,35,0.00,,,0.00,229.000000,,2014-03-10 00:42:00,
2014-03-09 19:52:00,62.0,34.0,-100.00,South,170,2.0,6.0,35,0.00,,,0.00,229.000000,,2014-03-10 00:52:00,
2014-03-09 20:02:00,62.0,34.0,-100.00,South,170,2.0,6.0,35,0.00,,,0.00,229.000000,,2014-03-10 01:02:00,
2014-03-09 20:42:00,56.0,33.0,-100.00,ESE,123,3.0,4.0,42,0.00,,,0.00,24.000000,,2014-03-10 01:42:00,
2014-03-09 20:52:00,56.0,33.0,-100.00,ESE,123,3.0,4.0,42,0.00,,,0.00,24.000000,,2014-03-10 01:52:00,
2014-03-09 21:02:00,56.0,33.0,-100.00,ESE,123,3.0,4.0,42,0.00,,,0.00,24.000000,,2014-03-10 02:02:00,
2014-03-09 21:42:00,54.0,33.0,-100.00,SSE,159,4.0,5.0,45,0.00,,,0.00,0.000000,,2014-03-10 02:42:00,
2014-03-09 21:52:00,54.0,33.0,-100.00,SSE,159,4.0,5.0,45,0.00,,,0.00,0.000000,,2014-03-10 02:52:00,
2014-03-09 22:02:00,54.0,33.0,-100.00,SSE,159,4.0,5.0,45,0.00,,,0.00,0.000000,,2014-03-10 03:02:00,
2014-03-09 22:43:00,53.0,33.0,-100.00,SSE,163,5.0,6.0,46,0.00,,,0.00,0.000000,,2014-03-10 03:43:00,
2014-03-09 22:54:00,53.0,33.0,-100.00,SSE,163,5.0,6.0,46,0.00,,,0.00,0.000000,,2014-03-10 03:54:00,
2014-03-09 23:03:00,53.0,33.0,-100.00,SSE,163,5.0,6.0,46,0.00,,,0.00,0.000000,,2014-03-10 04:03:00,
2014-03-09 23:43:00,51.0,33.0,-100.00,SSE,162,4.0,7.0,49,0.00,,,0.00,0.000000,,2014-03-10 04:43:00,
2014-03-09 23:54:00,51.0,33.0,-100.00,SSE,162,4.0,7.0,49,0.00,,,0.00,0.000000,,2014-03-10 04:54:00,